ヌーク の空港の天気 - METARとTAF

ヌーク空港 ( BGGH / GOH ) - グリーンランド ヌーク
飛行場実況気象(Metar)
観測時間10/18 01:50 WGST (10/18 03:50 UTC)
風向・風速北北東 7m/s
視程-
天気現象
全天の4割程度の雲 雲底高度 5790m
気温-6℃
湿度63%
気圧995hPa
METARBGGH 180350Z AUTO 03014KT 9999NDV SCT190/// M06/M12 Q0995
過去の天気等 Google飛行場航空写真 Wunderground天気予報

過去48時間のMETAR

飛行場予報(TAF)
発表時間: 10/17 21:23 WGST (10/17 23:23 UTC)
予報対象時間: 17日22時 WGST ~ 18日2時 WGST
風向・風速北北東 8m/s
視程10km以上
天気現象低い地吹雪
少しの雲 雲底高度 6100m
TAF BGGH 172323Z 1800/1804 02015KT 9999 DRSN FEW200